sensor_id;sensor_type;location;lat;lon;timestamp;P1;durP1;ratioP1;P2;durP2;ratioP2
15202;SDS011;7702;51.046;5.184;2023-06-19T00:02:14;5.80;;;5.20;;
15202;SDS011;7702;51.046;5.184;2023-06-19T00:04:40;4.77;;;4.30;;
15202;SDS011;7702;51.046;5.184;2023-06-19T00:07:05;4.93;;;4.53;;
15202;SDS011;7702;51.046;5.184;2023-06-19T00:09:32;5.30;;;4.37;;
15202;SDS011;7702;51.046;5.184;2023-06-19T00:11:58;4.70;;;4.30;;
15202;SDS011;7702;51.046;5.184;2023-06-19T00:14:24;5.80;;;5.00;;
15202;SDS011;7702;51.046;5.184;2023-06-19T00:16:50;4.17;;;3.87;;
15202;SDS011;7702;51.046;5.184;2023-06-19T00:19:16;4.83;;;4.33;;
15202;SDS011;7702;51.046;5.184;2023-06-19T00:21:43;4.57;;;4.17;;
15202;SDS011;7702;51.046;5.184;2023-06-19T00:24:09;6.07;;;3.57;;
15202;SDS011;7702;51.046;5.184;2023-06-19T00:26:35;4.80;;;4.37;;
15202;SDS011;7702;51.046;5.184;2023-06-19T00:29:01;5.10;;;4.60;;
15202;SDS011;7702;51.046;5.184;2023-06-19T00:31:27;4.50;;;4.10;;
15202;SDS011;7702;51.046;5.184;2023-06-19T00:33:53;4.97;;;4.57;;
15202;SDS011;7702;51.046;5.184;2023-06-19T00:36:19;5.03;;;4.53;;
15202;SDS011;7702;51.046;5.184;2023-06-19T00:38:46;4.40;;;4.00;;
15202;SDS011;7702;51.046;5.184;2023-06-19T00:41:13;4.50;;;4.10;;
15202;SDS011;7702;51.046;5.184;2023-06-19T00:43:40;4.47;;;4.07;;
15202;SDS011;7702;51.046;5.184;2023-06-19T00:46:05;4.80;;;4.27;;
15202;SDS011;7702;51.046;5.184;2023-06-19T00:48:31;6.10;;;4.20;;
15202;SDS011;7702;51.046;5.184;2023-06-19T00:50:59;5.50;;;4.60;;
15202;SDS011;7702;51.046;5.184;2023-06-19T00:53:25;4.60;;;4.20;;
15202;SDS011;7702;51.046;5.184;2023-06-19T00:55:52;4.70;;;4.30;;
15202;SDS011;7702;51.046;5.184;2023-06-19T00:58:20;4.40;;;4.00;;
15202;SDS011;7702;51.046;5.184;2023-06-19T01:00:46;6.07;;;4.20;;
15202;SDS011;7702;51.046;5.184;2023-06-19T01:03:13;4.90;;;4.13;;
15202;SDS011;7702;51.046;5.184;2023-06-19T01:05:39;4.23;;;3.83;;
15202;SDS011;7702;51.046;5.184;2023-06-19T01:10:32;4.80;;;4.27;;
15202;SDS011;7702;51.046;5.184;2023-06-19T01:13:02;4.97;;;4.47;;
15202;SDS011;7702;51.046;5.184;2023-06-19T01:15:29;4.50;;;4.00;;
15202;SDS011;7702;51.046;5.184;2023-06-19T01:17:56;5.03;;;4.40;;
15202;SDS011;7702;51.046;5.184;2023-06-19T01:20:24;4.67;;;4.27;;
15202;SDS011;7702;51.046;5.184;2023-06-19T01:22:50;6.53;;;4.23;;
15202;SDS011;7702;51.046;5.184;2023-06-19T01:25:16;4.97;;;4.13;;
15202;SDS011;7702;51.046;5.184;2023-06-19T01:27:42;4.20;;;3.83;;
15202;SDS011;7702;51.046;5.184;2023-06-19T01:30:08;5.00;;;4.57;;
15202;SDS011;7702;51.046;5.184;2023-06-19T01:32:40;5.07;;;4.30;;
15202;SDS011;7702;51.046;5.184;2023-06-19T01:35:07;5.77;;;4.00;;
15202;SDS011;7702;51.046;5.184;2023-06-19T01:37:34;4.57;;;4.17;;
15202;SDS011;7702;51.046;5.184;2023-06-19T01:40:03;5.00;;;4.50;;
15202;SDS011;7702;51.046;5.184;2023-06-19T01:42:32;5.33;;;4.20;;
15202;SDS011;7702;51.046;5.184;2023-06-19T01:45:00;4.53;;;4.13;;
15202;SDS011;7702;51.046;5.184;2023-06-19T01:47:28;6.07;;;4.60;;
15202;SDS011;7702;51.046;5.184;2023-06-19T01:49:54;4.60;;;4.20;;
15202;SDS011;7702;51.046;5.184;2023-06-19T01:52:19;5.47;;;4.97;;
15202;SDS011;7702;51.046;5.184;2023-06-19T01:54:45;6.90;;;4.23;;
15202;SDS011;7702;51.046;5.184;2023-06-19T01:57:11;6.43;;;3.97;;
15202;SDS011;7702;51.046;5.184;2023-06-19T01:59:37;5.60;;;4.17;;
15202;SDS011;7702;51.046;5.184;2023-06-19T02:02:03;5.50;;;4.10;;
15202;SDS011;7702;51.046;5.184;2023-06-19T02:04:29;4.43;;;4.07;;
15202;SDS011;7702;51.046;5.184;2023-06-19T02:06:55;4.73;;;4.30;;
15202;SDS011;7702;51.046;5.184;2023-06-19T02:09:21;5.00;;;4.60;;
15202;SDS011;7702;51.046;5.184;2023-06-19T02:11:46;5.13;;;4.07;;
15202;SDS011;7702;51.046;5.184;2023-06-19T02:14:12;4.23;;;3.90;;
15202;SDS011;7702;51.046;5.184;2023-06-19T02:16:38;4.83;;;4.33;;
15202;SDS011;7702;51.046;5.184;2023-06-19T02:19:05;5.13;;;4.17;;
15202;SDS011;7702;51.046;5.184;2023-06-19T02:21:31;4.90;;;4.40;;
15202;SDS011;7702;51.046;5.184;2023-06-19T02:23:57;4.40;;;4.10;;
15202;SDS011;7702;51.046;5.184;2023-06-19T02:26:23;5.03;;;4.00;;
15202;SDS011;7702;51.046;5.184;2023-06-19T02:28:48;4.47;;;4.07;;
15202;SDS011;7702;51.046;5.184;2023-06-19T02:31:14;4.17;;;3.80;;
15202;SDS011;7702;51.046;5.184;2023-06-19T02:33:40;5.37;;;4.00;;
15202;SDS011;7702;51.046;5.184;2023-06-19T02:36:05;4.57;;;4.13;;
15202;SDS011;7702;51.046;5.184;2023-06-19T02:38:31;5.00;;;4.53;;
15202;SDS011;7702;51.046;5.184;2023-06-19T02:40:56;4.27;;;3.97;;
15202;SDS011;7702;51.046;5.184;2023-06-19T02:43:23;4.30;;;4.00;;
15202;SDS011;7702;51.046;5.184;2023-06-19T02:45:48;6.10;;;4.20;;
15202;SDS011;7702;51.046;5.184;2023-06-19T02:48:14;3.97;;;3.67;;
15202;SDS011;7702;51.046;5.184;2023-06-19T02:50:40;4.93;;;3.87;;
15202;SDS011;7702;51.046;5.184;2023-06-19T02:53:06;4.27;;;3.87;;
15202;SDS011;7702;51.046;5.184;2023-06-19T02:55:32;4.93;;;3.80;;
15202;SDS011;7702;51.046;5.184;2023-06-19T02:57:58;3.90;;;3.50;;
15202;SDS011;7702;51.046;5.184;2023-06-19T03:00:23;4.93;;;3.70;;
15202;SDS011;7702;51.046;5.184;2023-06-19T03:02:52;4.57;;;3.90;;
15202;SDS011;7702;51.046;5.184;2023-06-19T03:05:18;4.27;;;3.77;;
15202;SDS011;7702;51.046;5.184;2023-06-19T03:07:44;4.23;;;3.80;;
15202;SDS011;7702;51.046;5.184;2023-06-19T03:10:09;4.50;;;4.10;;
15202;SDS011;7702;51.046;5.184;2023-06-19T03:12:35;5.77;;;4.57;;
15202;SDS011;7702;51.046;5.184;2023-06-19T03:15:01;5.43;;;4.07;;
15202;SDS011;7702;51.046;5.184;2023-06-19T03:17:26;4.20;;;3.80;;
15202;SDS011;7702;51.046;5.184;2023-06-19T03:19:52;5.07;;;3.73;;
15202;SDS011;7702;51.046;5.184;2023-06-19T03:22:19;4.30;;;3.90;;
15202;SDS011;7702;51.046;5.184;2023-06-19T03:24:45;4.30;;;3.50;;
15202;SDS011;7702;51.046;5.184;2023-06-19T03:27:11;4.63;;;3.97;;
15202;SDS011;7702;51.046;5.184;2023-06-19T03:29:37;4.37;;;3.97;;
15202;SDS011;7702;51.046;5.184;2023-06-19T03:32:03;4.90;;;4.23;;
15202;SDS011;7702;51.046;5.184;2023-06-19T03:34:29;4.50;;;4.10;;
15202;SDS011;7702;51.046;5.184;2023-06-19T03:36:54;4.23;;;3.83;;
15202;SDS011;7702;51.046;5.184;2023-06-19T03:39:20;4.03;;;3.73;;
15202;SDS011;7702;51.046;5.184;2023-06-19T03:41:46;4.77;;;4.07;;
15202;SDS011;7702;51.046;5.184;2023-06-19T03:44:12;5.83;;;4.60;;
15202;SDS011;7702;51.046;5.184;2023-06-19T03:46:38;4.47;;;4.03;;
15202;SDS011;7702;51.046;5.184;2023-06-19T03:49:03;4.27;;;3.93;;
15202;SDS011;7702;51.046;5.184;2023-06-19T03:51:29;3.97;;;3.67;;
15202;SDS011;7702;51.046;5.184;2023-06-19T03:53:55;4.50;;;3.83;;
15202;SDS011;7702;51.046;5.184;2023-06-19T03:56:21;4.17;;;3.77;;
15202;SDS011;7702;51.046;5.184;2023-06-19T03:58:47;7.50;;;4.30;;
15202;SDS011;7702;51.046;5.184;2023-06-19T04:01:12;4.90;;;4.40;;
15202;SDS011;7702;51.046;5.184;2023-06-19T04:03:38;6.47;;;4.63;;
15202;SDS011;7702;51.046;5.184;2023-06-19T04:06:04;4.90;;;4.43;;
15202;SDS011;7702;51.046;5.184;2023-06-19T04:08:29;4.40;;;4.00;;
15202;SDS011;7702;51.046;5.184;2023-06-19T04:10:56;5.97;;;4.47;;
15202;SDS011;7702;51.046;5.184;2023-06-19T04:13:22;5.57;;;4.20;;
15202;SDS011;7702;51.046;5.184;2023-06-19T04:15:47;4.93;;;4.43;;
15202;SDS011;7702;51.046;5.184;2023-06-19T04:18:13;6.00;;;4.33;;
15202;SDS011;7702;51.046;5.184;2023-06-19T04:20:39;5.23;;;4.60;;
15202;SDS011;7702;51.046;5.184;2023-06-19T04:23:05;5.60;;;4.17;;
15202;SDS011;7702;51.046;5.184;2023-06-19T04:25:31;4.83;;;3.83;;
15202;SDS011;7702;51.046;5.184;2023-06-19T04:27:56;4.80;;;4.30;;
15202;SDS011;7702;51.046;5.184;2023-06-19T04:30:22;5.10;;;4.60;;
15202;SDS011;7702;51.046;5.184;2023-06-19T04:32:48;5.57;;;4.87;;
15202;SDS011;7702;51.046;5.184;2023-06-19T04:35:13;5.70;;;5.10;;
15202;SDS011;7702;51.046;5.184;2023-06-19T04:37:39;5.57;;;4.97;;
15202;SDS011;7702;51.046;5.184;2023-06-19T04:40:05;6.60;;;4.83;;
15202;SDS011;7702;51.046;5.184;2023-06-19T04:42:33;5.27;;;4.67;;
15202;SDS011;7702;51.046;5.184;2023-06-19T04:44:58;5.70;;;5.20;;
15202;SDS011;7702;51.046;5.184;2023-06-19T04:47:24;8.37;;;5.17;;
15202;SDS011;7702;51.046;5.184;2023-06-19T04:49:51;5.97;;;5.40;;
15202;SDS011;7702;51.046;5.184;2023-06-19T04:52:17;6.40;;;5.63;;
15202;SDS011;7702;51.046;5.184;2023-06-19T04:54:43;6.37;;;5.63;;
15202;SDS011;7702;51.046;5.184;2023-06-19T04:57:09;7.53;;;6.77;;
15202;SDS011;7702;51.046;5.184;2023-06-19T04:59:36;6.83;;;6.23;;
15202;SDS011;7702;51.046;5.184;2023-06-19T05:02:02;7.57;;;6.10;;
15202;SDS011;7702;51.046;5.184;2023-06-19T05:04:28;6.80;;;6.10;;
15202;SDS011;7702;51.046;5.184;2023-06-19T05:06:57;6.73;;;6.13;;
15202;SDS011;7702;51.046;5.184;2023-06-19T05:09:24;7.57;;;6.23;;
15202;SDS011;7702;51.046;5.184;2023-06-19T05:11:49;10.17;;;7.07;;
15202;SDS011;7702;51.046;5.184;2023-06-19T05:14:15;6.77;;;6.00;;
15202;SDS011;7702;51.046;5.184;2023-06-19T05:16:40;7.07;;;6.23;;
15202;SDS011;7702;51.046;5.184;2023-06-19T05:19:06;7.27;;;6.13;;
15202;SDS011;7702;51.046;5.184;2023-06-19T05:21:32;7.67;;;6.10;;
15202;SDS011;7702;51.046;5.184;2023-06-19T05:23:57;6.73;;;6.03;;
15202;SDS011;7702;51.046;5.184;2023-06-19T05:26:24;7.27;;;5.83;;
15202;SDS011;7702;51.046;5.184;2023-06-19T05:28:50;7.20;;;6.60;;
15202;SDS011;7702;51.046;5.184;2023-06-19T05:31:17;7.27;;;6.57;;
15202;SDS011;7702;51.046;5.184;2023-06-19T05:33:43;8.77;;;7.53;;
15202;SDS011;7702;51.046;5.184;2023-06-19T05:36:09;8.07;;;7.37;;
15202;SDS011;7702;51.046;5.184;2023-06-19T05:38:35;8.90;;;7.97;;
15202;SDS011;7702;51.046;5.184;2023-06-19T05:41:01;9.07;;;8.27;;
15202;SDS011;7702;51.046;5.184;2023-06-19T05:43:28;9.73;;;8.73;;
15202;SDS011;7702;51.046;5.184;2023-06-19T05:45:54;10.10;;;8.97;;
15202;SDS011;7702;51.046;5.184;2023-06-19T05:48:24;10.30;;;9.40;;
15202;SDS011;7702;51.046;5.184;2023-06-19T05:50:50;10.07;;;9.07;;
15202;SDS011;7702;51.046;5.184;2023-06-19T05:53:16;8.77;;;7.90;;
15202;SDS011;7702;51.046;5.184;2023-06-19T05:55:42;8.53;;;7.70;;
15202;SDS011;7702;51.046;5.184;2023-06-19T05:58:08;8.53;;;7.67;;
15202;SDS011;7702;51.046;5.184;2023-06-19T06:00:34;9.83;;;8.93;;
15202;SDS011;7702;51.046;5.184;2023-06-19T06:02:59;9.67;;;8.70;;
15202;SDS011;7702;51.046;5.184;2023-06-19T06:05:25;9.00;;;8.10;;
15202;SDS011;7702;51.046;5.184;2023-06-19T06:07:52;8.53;;;7.83;;
15202;SDS011;7702;51.046;5.184;2023-06-19T06:10:22;8.00;;;7.20;;
15202;SDS011;7702;51.046;5.184;2023-06-19T06:12:48;7.87;;;7.03;;
15202;SDS011;7702;51.046;5.184;2023-06-19T06:15:15;7.43;;;6.83;;
15202;SDS011;7702;51.046;5.184;2023-06-19T06:17:41;7.10;;;6.47;;
15202;SDS011;7702;51.046;5.184;2023-06-19T06:20:07;7.60;;;6.10;;
15202;SDS011;7702;51.046;5.184;2023-06-19T06:22:39;7.27;;;6.57;;
15202;SDS011;7702;51.046;5.184;2023-06-19T06:25:05;6.53;;;5.93;;
15202;SDS011;7702;51.046;5.184;2023-06-19T06:27:32;7.33;;;6.70;;
15202;SDS011;7702;51.046;5.184;2023-06-19T06:29:58;7.83;;;6.43;;
15202;SDS011;7702;51.046;5.184;2023-06-19T06:32:23;7.03;;;6.37;;
15202;SDS011;7702;51.046;5.184;2023-06-19T06:34:49;8.27;;;6.00;;
15202;SDS011;7702;51.046;5.184;2023-06-19T06:37:15;7.87;;;6.67;;
15202;SDS011;7702;51.046;5.184;2023-06-19T06:39:47;6.37;;;5.87;;
15202;SDS011;7702;51.046;5.184;2023-06-19T06:42:14;6.80;;;6.03;;
15202;SDS011;7702;51.046;5.184;2023-06-19T06:44:39;6.90;;;6.30;;
15202;SDS011;7702;51.046;5.184;2023-06-19T06:47:05;7.10;;;6.50;;
15202;SDS011;7702;51.046;5.184;2023-06-19T06:49:31;7.13;;;6.43;;
15202;SDS011;7702;51.046;5.184;2023-06-19T06:51:57;8.83;;;7.03;;
15202;SDS011;7702;51.046;5.184;2023-06-19T06:54:22;7.50;;;6.80;;
15202;SDS011;7702;51.046;5.184;2023-06-19T06:56:48;8.03;;;7.33;;
15202;SDS011;7702;51.046;5.184;2023-06-19T06:59:14;7.73;;;6.90;;
15202;SDS011;7702;51.046;5.184;2023-06-19T07:01:43;7.93;;;7.17;;
15202;SDS011;7702;51.046;5.184;2023-06-19T07:04:09;8.70;;;7.03;;
15202;SDS011;7702;51.046;5.184;2023-06-19T07:06:34;7.30;;;6.70;;
15202;SDS011;7702;51.046;5.184;2023-06-19T07:09:00;8.03;;;7.40;;
15202;SDS011;7702;51.046;5.184;2023-06-19T07:11:26;7.60;;;7.00;;
15202;SDS011;7702;51.046;5.184;2023-06-19T07:13:51;8.13;;;7.37;;
15202;SDS011;7702;51.046;5.184;2023-06-19T07:16:17;8.53;;;6.53;;
15202;SDS011;7702;51.046;5.184;2023-06-19T07:18:42;7.43;;;6.73;;
15202;SDS011;7702;51.046;5.184;2023-06-19T07:21:10;7.80;;;7.00;;
15202;SDS011;7702;51.046;5.184;2023-06-19T07:23:40;7.57;;;6.90;;
15202;SDS011;7702;51.046;5.184;2023-06-19T07:26:07;7.50;;;6.90;;
15202;SDS011;7702;51.046;5.184;2023-06-19T07:28:33;8.47;;;7.67;;
15202;SDS011;7702;51.046;5.184;2023-06-19T07:31:01;8.40;;;7.70;;
15202;SDS011;7702;51.046;5.184;2023-06-19T07:33:28;8.33;;;7.33;;
15202;SDS011;7702;51.046;5.184;2023-06-19T07:35:54;8.50;;;7.80;;
15202;SDS011;7702;51.046;5.184;2023-06-19T07:38:20;7.60;;;6.73;;
15202;SDS011;7702;51.046;5.184;2023-06-19T07:40:46;7.23;;;6.47;;
15202;SDS011;7702;51.046;5.184;2023-06-19T07:43:13;7.70;;;6.90;;
15202;SDS011;7702;51.046;5.184;2023-06-19T07:45:39;7.43;;;6.73;;
15202;SDS011;7702;51.046;5.184;2023-06-19T07:48:04;6.47;;;5.97;;
15202;SDS011;7702;51.046;5.184;2023-06-19T07:50:30;6.80;;;6.13;;
15202;SDS011;7702;51.046;5.184;2023-06-19T07:52:57;7.30;;;6.60;;
15202;SDS011;7702;51.046;5.184;2023-06-19T07:55:22;7.63;;;6.93;;
15202;SDS011;7702;51.046;5.184;2023-06-19T07:57:48;7.53;;;6.87;;
15202;SDS011;7702;51.046;5.184;2023-06-19T08:00:14;7.90;;;7.00;;
15202;SDS011;7702;51.046;5.184;2023-06-19T08:02:40;8.73;;;7.83;;
15202;SDS011;7702;51.046;5.184;2023-06-19T08:05:06;7.80;;;7.10;;
15202;SDS011;7702;51.046;5.184;2023-06-19T08:07:33;7.57;;;6.93;;
15202;SDS011;7702;51.046;5.184;2023-06-19T08:10:02;7.10;;;6.40;;
15202;SDS011;7702;51.046;5.184;2023-06-19T08:12:29;6.83;;;6.13;;
15202;SDS011;7702;51.046;5.184;2023-06-19T08:14:55;6.77;;;6.27;;
15202;SDS011;7702;51.046;5.184;2023-06-19T08:17:21;7.63;;;7.03;;
15202;SDS011;7702;51.046;5.184;2023-06-19T08:19:47;7.43;;;6.70;;
15202;SDS011;7702;51.046;5.184;2023-06-19T08:22:13;7.10;;;6.33;;
15202;SDS011;7702;51.046;5.184;2023-06-19T08:24:39;8.00;;;6.93;;
15202;SDS011;7702;51.046;5.184;2023-06-19T08:27:06;9.60;;;7.13;;
15202;SDS011;7702;51.046;5.184;2023-06-19T08:29:32;6.90;;;6.30;;
15202;SDS011;7702;51.046;5.184;2023-06-19T08:31:57;7.57;;;6.97;;
15202;SDS011;7702;51.046;5.184;2023-06-19T08:34:23;7.60;;;6.77;;
15202;SDS011;7702;51.046;5.184;2023-06-19T08:36:49;7.63;;;6.73;;
15202;SDS011;7702;51.046;5.184;2023-06-19T08:39:15;9.43;;;8.60;;
15202;SDS011;7702;51.046;5.184;2023-06-19T08:41:41;8.63;;;7.77;;
15202;SDS011;7702;51.046;5.184;2023-06-19T08:44:07;7.77;;;7.13;;
15202;SDS011;7702;51.046;5.184;2023-06-19T08:46:34;8.40;;;7.57;;
15202;SDS011;7702;51.046;5.184;2023-06-19T08:49:02;7.40;;;6.77;;
15202;SDS011;7702;51.046;5.184;2023-06-19T08:51:31;9.30;;;7.97;;
15202;SDS011;7702;51.046;5.184;2023-06-19T08:54:00;7.60;;;7.00;;
15202;SDS011;7702;51.046;5.184;2023-06-19T08:56:28;7.73;;;6.93;;
15202;SDS011;7702;51.046;5.184;2023-06-19T08:59:06;9.57;;;7.53;;
15202;SDS011;7702;51.046;5.184;2023-06-19T09:01:34;7.97;;;7.23;;
15202;SDS011;7702;51.046;5.184;2023-06-19T09:03:59;8.80;;;8.00;;
15202;SDS011;7702;51.046;5.184;2023-06-19T09:06:32;8.77;;;7.93;;
15202;SDS011;7702;51.046;5.184;2023-06-19T09:08:59;9.50;;;8.10;;
15202;SDS011;7702;51.046;5.184;2023-06-19T09:11:25;8.50;;;7.80;;
15202;SDS011;7702;51.046;5.184;2023-06-19T09:13:57;10.67;;;8.47;;
15202;SDS011;7702;51.046;5.184;2023-06-19T09:16:23;10.47;;;9.50;;
15202;SDS011;7702;51.046;5.184;2023-06-19T09:18:49;9.03;;;8.33;;
15202;SDS011;7702;51.046;5.184;2023-06-19T09:21:16;9.07;;;8.27;;
15202;SDS011;7702;51.046;5.184;2023-06-19T09:23:43;10.47;;;9.23;;
15202;SDS011;7702;51.046;5.184;2023-06-19T09:26:09;9.27;;;8.47;;
15202;SDS011;7702;51.046;5.184;2023-06-19T09:28:39;9.90;;;8.93;;
15202;SDS011;7702;51.046;5.184;2023-06-19T09:31:08;10.40;;;9.27;;
15202;SDS011;7702;51.046;5.184;2023-06-19T09:33:34;9.30;;;8.40;;
15202;SDS011;7702;51.046;5.184;2023-06-19T09:36:00;9.03;;;8.33;;
15202;SDS011;7702;51.046;5.184;2023-06-19T09:38:31;9.43;;;8.53;;
15202;SDS011;7702;51.046;5.184;2023-06-19T09:41:01;9.40;;;8.50;;
15202;SDS011;7702;51.046;5.184;2023-06-19T09:46:06;9.77;;;8.03;;
15202;SDS011;7702;51.046;5.184;2023-06-19T09:48:34;9.77;;;8.77;;
15202;SDS011;7702;51.046;5.184;2023-06-19T09:53:53;8.50;;;7.67;;
15202;SDS011;7702;51.046;5.184;2023-06-19T09:56:19;8.47;;;7.40;;
15202;SDS011;7702;51.046;5.184;2023-06-19T09:58:49;8.33;;;7.60;;
15202;SDS011;7702;51.046;5.184;2023-06-19T10:01:18;9.33;;;8.47;;
15202;SDS011;7702;51.046;5.184;2023-06-19T10:03:45;9.77;;;7.90;;
15202;SDS011;7702;51.046;5.184;2023-06-19T10:06:15;9.83;;;8.93;;
15202;SDS011;7702;51.046;5.184;2023-06-19T10:08:43;8.70;;;7.90;;
15202;SDS011;7702;51.046;5.184;2023-06-19T10:11:10;9.43;;;8.50;;
15202;SDS011;7702;51.046;5.184;2023-06-19T10:13:37;7.23;;;6.63;;
15202;SDS011;7702;51.046;5.184;2023-06-19T10:16:06;8.47;;;6.97;;
15202;SDS011;7702;51.046;5.184;2023-06-19T10:18:52;9.13;;;8.27;;
15202;SDS011;7702;51.046;5.184;2023-06-19T10:21:18;7.80;;;7.00;;
15202;SDS011;7702;51.046;5.184;2023-06-19T10:23:55;14.77;;;7.53;;
15202;SDS011;7702;51.046;5.184;2023-06-19T10:26:32;8.37;;;7.57;;
15202;SDS011;7702;51.046;5.184;2023-06-19T10:29:13;8.37;;;7.53;;
15202;SDS011;7702;51.046;5.184;2023-06-19T10:31:39;8.37;;;7.23;;
15202;SDS011;7702;51.046;5.184;2023-06-19T10:34:05;7.83;;;7.03;;
15202;SDS011;7702;51.046;5.184;2023-06-19T10:36:31;7.03;;;6.40;;
15202;SDS011;7702;51.046;5.184;2023-06-19T10:38:57;7.40;;;6.80;;
15202;SDS011;7702;51.046;5.184;2023-06-19T10:41:23;8.27;;;7.47;;
15202;SDS011;7702;51.046;5.184;2023-06-19T10:44:03;8.93;;;7.43;;
15202;SDS011;7702;51.046;5.184;2023-06-19T10:46:34;7.00;;;6.40;;
15202;SDS011;7702;51.046;5.184;2023-06-19T10:49:02;7.83;;;7.03;;
15202;SDS011;7702;51.046;5.184;2023-06-19T10:51:34;7.50;;;6.77;;
15202;SDS011;7702;51.046;5.184;2023-06-19T10:54:03;7.20;;;6.47;;
15202;SDS011;7702;51.046;5.184;2023-06-19T10:56:30;9.10;;;6.60;;
15202;SDS011;7702;51.046;5.184;2023-06-19T10:58:58;7.60;;;6.80;;
15202;SDS011;7702;51.046;5.184;2023-06-19T11:01:31;7.53;;;6.43;;
15202;SDS011;7702;51.046;5.184;2023-06-19T11:03:58;7.27;;;6.40;;
15202;SDS011;7702;51.046;5.184;2023-06-19T11:06:24;6.73;;;6.13;;
15202;SDS011;7702;51.046;5.184;2023-06-19T11:08:50;7.60;;;6.90;;
15202;SDS011;7702;51.046;5.184;2023-06-19T11:11:17;8.83;;;6.57;;
15202;SDS011;7702;51.046;5.184;2023-06-19T11:13:45;7.90;;;7.10;;
15202;SDS011;7702;51.046;5.184;2023-06-19T11:16:10;6.37;;;5.77;;
15202;SDS011;7702;51.046;5.184;2023-06-19T11:18:39;7.50;;;6.80;;
15202;SDS011;7702;51.046;5.184;2023-06-19T11:21:04;7.20;;;6.33;;
15202;SDS011;7702;51.046;5.184;2023-06-19T11:23:30;6.60;;;6.00;;
15202;SDS011;7702;51.046;5.184;2023-06-19T11:26:02;6.97;;;6.33;;
15202;SDS011;7702;51.046;5.184;2023-06-19T11:28:29;8.27;;;7.10;;
15202;SDS011;7702;51.046;5.184;2023-06-19T11:30:58;7.33;;;6.60;;
15202;SDS011;7702;51.046;5.184;2023-06-19T11:33:31;7.27;;;6.63;;
15202;SDS011;7702;51.046;5.184;2023-06-19T11:36:01;7.37;;;6.67;;
15202;SDS011;7702;51.046;5.184;2023-06-19T11:38:28;7.77;;;7.00;;
15202;SDS011;7702;51.046;5.184;2023-06-19T11:40:54;6.70;;;6.03;;
15202;SDS011;7702;51.046;5.184;2023-06-19T11:43:30;7.07;;;6.17;;
15202;SDS011;7702;51.046;5.184;2023-06-19T11:46:03;7.43;;;6.67;;
15202;SDS011;7702;51.046;5.184;2023-06-19T11:48:38;7.07;;;6.43;;
15202;SDS011;7702;51.046;5.184;2023-06-19T11:51:04;6.37;;;5.77;;
15202;SDS011;7702;51.046;5.184;2023-06-19T11:53:29;6.57;;;6.00;;
15202;SDS011;7702;51.046;5.184;2023-06-19T11:55:55;6.63;;;6.13;;
15202;SDS011;7702;51.046;5.184;2023-06-19T11:58:21;6.63;;;5.93;;
15202;SDS011;7702;51.046;5.184;2023-06-19T12:00:47;7.13;;;6.23;;
15202;SDS011;7702;51.046;5.184;2023-06-19T12:03:14;6.80;;;5.70;;
15202;SDS011;7702;51.046;5.184;2023-06-19T12:05:40;6.83;;;6.23;;
15202;SDS011;7702;51.046;5.184;2023-06-19T12:08:05;6.90;;;6.30;;
15202;SDS011;7702;51.046;5.184;2023-06-19T12:10:33;6.40;;;5.80;;
15202;SDS011;7702;51.046;5.184;2023-06-19T12:12:59;8.03;;;6.17;;
15202;SDS011;7702;51.046;5.184;2023-06-19T12:15:25;7.20;;;5.90;;
15202;SDS011;7702;51.046;5.184;2023-06-19T12:17:51;7.33;;;6.63;;
15202;SDS011;7702;51.046;5.184;2023-06-19T12:20:17;6.73;;;6.03;;
15202;SDS011;7702;51.046;5.184;2023-06-19T12:22:43;7.30;;;6.60;;
15202;SDS011;7702;51.046;5.184;2023-06-19T12:25:09;6.73;;;5.83;;
15202;SDS011;7702;51.046;5.184;2023-06-19T12:27:35;6.00;;;5.40;;
15202;SDS011;7702;51.046;5.184;2023-06-19T12:30:02;7.47;;;6.63;;
15202;SDS011;7702;51.046;5.184;2023-06-19T12:32:29;6.63;;;6.00;;
15202;SDS011;7702;51.046;5.184;2023-06-19T12:34:54;6.23;;;5.63;;
15202;SDS011;7702;51.046;5.184;2023-06-19T12:37:20;6.65;;;6.05;;
15202;SDS011;7702;51.046;5.184;2023-06-19T12:39:46;7.07;;;6.40;;
15202;SDS011;7702;51.046;5.184;2023-06-19T12:42:13;7.00;;;6.40;;
15202;SDS011;7702;51.046;5.184;2023-06-19T12:44:39;6.20;;;5.70;;
15202;SDS011;7702;51.046;5.184;2023-06-19T12:47:05;6.55;;;5.97;;
15202;SDS011;7702;51.046;5.184;2023-06-19T12:49:32;6.23;;;5.63;;
15202;SDS011;7702;51.046;5.184;2023-06-19T12:51:58;6.37;;;5.77;;
15202;SDS011;7702;51.046;5.184;2023-06-19T12:54:24;6.80;;;6.00;;
15202;SDS011;7702;51.046;5.184;2023-06-19T12:56:50;5.83;;;5.43;;
15202;SDS011;7702;51.046;5.184;2023-06-19T12:59:16;5.37;;;4.87;;
15202;SDS011;7702;51.046;5.184;2023-06-19T13:01:42;7.03;;;5.53;;
15202;SDS011;7702;51.046;5.184;2023-06-19T13:04:08;6.23;;;5.43;;
15202;SDS011;7702;51.046;5.184;2023-06-19T13:06:35;6.33;;;5.73;;
15202;SDS011;7702;51.046;5.184;2023-06-19T13:09:01;6.20;;;5.60;;
15202;SDS011;7702;51.046;5.184;2023-06-19T13:11:27;5.87;;;5.23;;
15202;SDS011;7702;51.046;5.184;2023-06-19T13:13:53;6.23;;;5.50;;
15202;SDS011;7702;51.046;5.184;2023-06-19T13:16:19;6.10;;;5.50;;
15202;SDS011;7702;51.046;5.184;2023-06-19T13:18:44;6.00;;;5.43;;
15202;SDS011;7702;51.046;5.184;2023-06-19T13:21:11;6.57;;;6.07;;
15202;SDS011;7702;51.046;5.184;2023-06-19T13:23:37;5.90;;;5.40;;
15202;SDS011;7702;51.046;5.184;2023-06-19T13:26:04;5.30;;;4.90;;
15202;SDS011;7702;51.046;5.184;2023-06-19T13:28:31;7.27;;;5.50;;
15202;SDS011;7702;51.046;5.184;2023-06-19T13:30:57;5.35;;;4.88;;
15202;SDS011;7702;51.046;5.184;2023-06-19T13:33:23;5.32;;;4.85;;
15202;SDS011;7702;51.046;5.184;2023-06-19T13:35:48;5.30;;;4.90;;
15202;SDS011;7702;51.046;5.184;2023-06-19T13:38:14;5.53;;;5.03;;
15202;SDS011;7702;51.046;5.184;2023-06-19T13:40:40;5.83;;;5.27;;
15202;SDS011;7702;51.046;5.184;2023-06-19T13:43:07;6.53;;;5.93;;
15202;SDS011;7702;51.046;5.184;2023-06-19T13:45:33;7.85;;;5.57;;
15202;SDS011;7702;51.046;5.184;2023-06-19T13:47:59;5.80;;;5.28;;
15202;SDS011;7702;51.046;5.184;2023-06-19T13:50:26;7.68;;;5.80;;
15202;SDS011;7702;51.046;5.184;2023-06-19T13:52:52;5.95;;;5.45;;
15202;SDS011;7702;51.046;5.184;2023-06-19T13:55:19;6.88;;;5.88;;
15202;SDS011;7702;51.046;5.184;2023-06-19T13:57:45;6.45;;;5.15;;
15202;SDS011;7702;51.046;5.184;2023-06-19T14:00:11;5.53;;;5.03;;
15202;SDS011;7702;51.046;5.184;2023-06-19T14:02:37;5.28;;;4.88;;
15202;SDS011;7702;51.046;5.184;2023-06-19T14:05:04;6.55;;;5.90;;
15202;SDS011;7702;51.046;5.184;2023-06-19T14:07:31;5.65;;;5.15;;
15202;SDS011;7702;51.046;5.184;2023-06-19T14:09:57;6.63;;;5.80;;
15202;SDS011;7702;51.046;5.184;2023-06-19T14:12:23;5.63;;;5.05;;
15202;SDS011;7702;51.046;5.184;2023-06-19T14:14:49;5.47;;;5.07;;
15202;SDS011;7702;51.046;5.184;2023-06-19T14:17:14;5.63;;;5.20;;
15202;SDS011;7702;51.046;5.184;2023-06-19T14:19:40;6.73;;;5.67;;
15202;SDS011;7702;51.046;5.184;2023-06-19T14:22:06;5.57;;;5.07;;
15202;SDS011;7702;51.046;5.184;2023-06-19T14:24:32;5.73;;;5.23;;
15202;SDS011;7702;51.046;5.184;2023-06-19T14:26:58;6.13;;;5.50;;
15202;SDS011;7702;51.046;5.184;2023-06-19T14:29:23;6.07;;;5.33;;
15202;SDS011;7702;51.046;5.184;2023-06-19T14:31:52;7.27;;;5.60;;
15202;SDS011;7702;51.046;5.184;2023-06-19T14:34:18;4.50;;;4.10;;
15202;SDS011;7702;51.046;5.184;2023-06-19T14:36:45;4.95;;;4.55;;
15202;SDS011;7702;51.046;5.184;2023-06-19T14:39:11;6.32;;;5.30;;
15202;SDS011;7702;51.046;5.184;2023-06-19T14:41:37;5.30;;;4.80;;
15202;SDS011;7702;51.046;5.184;2023-06-19T14:44:03;6.33;;;5.73;;
15202;SDS011;7702;51.046;5.184;2023-06-19T14:46:29;5.40;;;4.93;;
15202;SDS011;7702;51.046;5.184;2023-06-19T14:48:56;5.53;;;5.03;;
15202;SDS011;7702;51.046;5.184;2023-06-19T14:51:26;5.40;;;4.90;;
15202;SDS011;7702;51.046;5.184;2023-06-19T14:53:52;5.45;;;4.97;;
15202;SDS011;7702;51.046;5.184;2023-06-19T14:56:17;7.55;;;5.22;;
15202;SDS011;7702;51.046;5.184;2023-06-19T14:58:43;6.93;;;5.32;;
15202;SDS011;7702;51.046;5.184;2023-06-19T15:01:09;5.50;;;5.00;;
15202;SDS011;7702;51.046;5.184;2023-06-19T15:03:35;6.68;;;4.68;;
15202;SDS011;7702;51.046;5.184;2023-06-19T15:06:02;5.63;;;5.13;;